sensor_id;sensor_type;location;lat;lon;timestamp;pressure;altitude;pressure_sealevel;temperature;humidity
10716;BME280;5409;42.620;23.316;2024-01-30T00:02:11;94125.13;;;-2.40;66.26
10716;BME280;5409;42.620;23.316;2024-01-30T00:04:36;94124.84;;;-2.37;65.89
10716;BME280;5409;42.620;23.316;2024-01-30T00:07:02;94129.13;;;-2.38;66.53
10716;BME280;5409;42.620;23.316;2024-01-30T00:09:27;94136.06;;;-2.40;67.01
10716;BME280;5409;42.620;23.316;2024-01-30T00:11:52;94135.50;;;-2.51;66.47
10716;BME280;5409;42.620;23.316;2024-01-30T00:14:18;94138.81;;;-2.59;66.53
10716;BME280;5409;42.620;23.316;2024-01-30T00:16:43;94145.13;;;-2.63;66.03
10716;BME280;5409;42.620;23.316;2024-01-30T00:19:09;94135.63;;;-2.61;66.49
10716;BME280;5409;42.620;23.316;2024-01-30T00:21:34;94143.03;;;-2.68;66.26
10716;BME280;5409;42.620;23.316;2024-01-30T00:23:59;94150.47;;;-2.66;66.26
10716;BME280;5409;42.620;23.316;2024-01-30T00:26:25;94134.94;;;-2.71;64.99
10716;BME280;5409;42.620;23.316;2024-01-30T00:28:50;94153.31;;;-2.69;65.62
10716;BME280;5409;42.620;23.316;2024-01-30T00:31:16;94152.69;;;-2.71;66.26
10716;BME280;5409;42.620;23.316;2024-01-30T00:33:41;94148.94;;;-2.59;65.99
10716;BME280;5409;42.620;23.316;2024-01-30T00:36:08;94141.44;;;-2.69;66.76
10716;BME280;5409;42.620;23.316;2024-01-30T00:38:33;94144.13;;;-2.70;65.34
10716;BME280;5409;42.620;23.316;2024-01-30T00:40:59;94139.75;;;-2.60;65.06
10716;BME280;5409;42.620;23.316;2024-01-30T00:43:24;94135.56;;;-2.69;65.56
10716;BME280;5409;42.620;23.316;2024-01-30T00:45:50;94150.69;;;-2.59;65.27
10716;BME280;5409;42.620;23.316;2024-01-30T00:48:17;94139.47;;;-2.57;65.91
10716;BME280;5409;42.620;23.316;2024-01-30T00:50:43;94123.13;;;-2.54;65.02
10716;BME280;5409;42.620;23.316;2024-01-30T00:53:08;94134.47;;;-2.41;65.47
10716;BME280;5409;42.620;23.316;2024-01-30T00:55:34;94142.44;;;-2.36;65.80
10716;BME280;5409;42.620;23.316;2024-01-30T00:57:59;94138.75;;;-2.41;64.96
10716;BME280;5409;42.620;23.316;2024-01-30T01:00:24;94136.38;;;-2.43;65.09
10716;BME280;5409;42.620;23.316;2024-01-30T01:02:57;94124.75;;;-2.53;65.47
10716;BME280;5409;42.620;23.316;2024-01-30T01:05:23;94127.03;;;-2.42;65.57
10716;BME280;5409;42.620;23.316;2024-01-30T01:07:48;94121.00;;;-2.41;64.69
10716;BME280;5409;42.620;23.316;2024-01-30T01:10:14;94130.31;;;-2.50;65.11
10716;BME280;5409;42.620;23.316;2024-01-30T01:12:41;94132.31;;;-2.79;66.32
10716;BME280;5409;42.620;23.316;2024-01-30T01:15:07;94124.97;;;-3.08;66.97
10716;BME280;5409;42.620;23.316;2024-01-30T01:17:35;94137.94;;;-2.93;65.93
10716;BME280;5409;42.620;23.316;2024-01-30T01:20:00;94133.59;;;-3.01;65.95
10716;BME280;5409;42.620;23.316;2024-01-30T01:22:25;94133.88;;;-3.04;65.05
10716;BME280;5409;42.620;23.316;2024-01-30T01:24:51;94136.63;;;-3.33;65.69
10716;BME280;5409;42.620;23.316;2024-01-30T01:27:16;94136.72;;;-3.25;65.00
10716;BME280;5409;42.620;23.316;2024-01-30T01:29:41;94131.88;;;-3.36;65.88
10716;BME280;5409;42.620;23.316;2024-01-30T01:32:07;94107.88;;;-3.77;67.34
10716;BME280;5409;42.620;23.316;2024-01-30T01:34:33;94138.97;;;-3.39;66.47
10716;BME280;5409;42.620;23.316;2024-01-30T01:36:58;94135.66;;;-3.40;66.15
10716;BME280;5409;42.620;23.316;2024-01-30T01:39:24;94131.31;;;-3.30;66.32
10716;BME280;5409;42.620;23.316;2024-01-30T01:41:49;94138.69;;;-3.36;67.43
10716;BME280;5409;42.620;23.316;2024-01-30T01:44:15;94141.13;;;-3.27;67.88
10716;BME280;5409;42.620;23.316;2024-01-30T01:46:40;94139.91;;;-3.23;67.22
10716;BME280;5409;42.620;23.316;2024-01-30T01:49:06;94142.66;;;-3.16;66.57
10716;BME280;5409;42.620;23.316;2024-01-30T01:51:34;94131.88;;;-3.18;66.89
10716;BME280;5409;42.620;23.316;2024-01-30T01:54:03;94133.03;;;-3.13;67.22
10716;BME280;5409;42.620;23.316;2024-01-30T01:56:30;94127.66;;;-3.10;67.68
10716;BME280;5409;42.620;23.316;2024-01-30T01:59:00;94130.09;;;-3.00;66.62
10716;BME280;5409;42.620;23.316;2024-01-30T02:01:27;94127.47;;;-2.90;65.79
10716;BME280;5409;42.620;23.316;2024-01-30T02:03:52;94137.47;;;-2.89;66.36
10716;BME280;5409;42.620;23.316;2024-01-30T02:06:18;94136.16;;;-2.75;65.87
10716;BME280;5409;42.620;23.316;2024-01-30T02:08:44;94136.78;;;-2.81;66.41
10716;BME280;5409;42.620;23.316;2024-01-30T02:11:09;94144.72;;;-2.76;65.93
10716;BME280;5409;42.620;23.316;2024-01-30T02:13:36;94148.91;;;-2.67;65.68
10716;BME280;5409;42.620;23.316;2024-01-30T02:16:01;94142.69;;;-2.73;65.99
10716;BME280;5409;42.620;23.316;2024-01-30T02:18:26;94150.38;;;-2.82;66.68
10716;BME280;5409;42.620;23.316;2024-01-30T02:20:54;94139.66;;;-2.76;65.70
10716;BME280;5409;42.620;23.316;2024-01-30T02:23:23;94145.72;;;-2.69;65.80
10716;BME280;5409;42.620;23.316;2024-01-30T02:25:49;94134.97;;;-2.63;65.38
10716;BME280;5409;42.620;23.316;2024-01-30T02:28:15;94142.44;;;-2.61;65.20
10716;BME280;5409;42.620;23.316;2024-01-30T02:30:42;94138.00;;;-2.59;64.60
10716;BME280;5409;42.620;23.316;2024-01-30T02:33:08;94132.50;;;-2.55;64.44
10716;BME280;5409;42.620;23.316;2024-01-30T02:35:33;94128.69;;;-2.51;64.97
10716;BME280;5409;42.620;23.316;2024-01-30T02:37:59;94137.78;;;-2.48;64.32
10716;BME280;5409;42.620;23.316;2024-01-30T02:40:25;94133.97;;;-2.44;64.92
10716;BME280;5409;42.620;23.316;2024-01-30T02:42:50;94126.34;;;-2.52;64.03
10716;BME280;5409;42.620;23.316;2024-01-30T02:45:15;94133.16;;;-2.53;63.91
10716;BME280;5409;42.620;23.316;2024-01-30T02:47:41;94129.16;;;-2.55;63.66
10716;BME280;5409;42.620;23.316;2024-01-30T02:50:06;94110.31;;;-2.79;64.20
10716;BME280;5409;42.620;23.316;2024-01-30T02:52:32;94126.03;;;-2.49;63.44
10716;BME280;5409;42.620;23.316;2024-01-30T02:54:57;94131.91;;;-2.49;63.60
10716;BME280;5409;42.620;23.316;2024-01-30T02:57:23;94138.56;;;-2.48;63.72
10716;BME280;5409;42.620;23.316;2024-01-30T02:59:48;94128.66;;;-2.59;64.46
10716;BME280;5409;42.620;23.316;2024-01-30T03:02:14;94139.69;;;-2.68;64.98
10716;BME280;5409;42.620;23.316;2024-01-30T03:04:42;94128.63;;;-2.67;64.77
10716;BME280;5409;42.620;23.316;2024-01-30T03:07:08;94127.63;;;-2.48;63.62
10716;BME280;5409;42.620;23.316;2024-01-30T03:09:33;94131.59;;;-2.46;63.54
10716;BME280;5409;42.620;23.316;2024-01-30T03:11:58;94115.66;;;-2.56;63.65
10716;BME280;5409;42.620;23.316;2024-01-30T03:14:24;94132.53;;;-2.47;63.21
10716;BME280;5409;42.620;23.316;2024-01-30T03:16:49;94127.63;;;-2.48;63.47
10716;BME280;5409;42.620;23.316;2024-01-30T03:19:14;94124.28;;;-2.49;63.42
10716;BME280;5409;42.620;23.316;2024-01-30T03:21:40;94134.09;;;-2.54;63.08
10716;BME280;5409;42.620;23.316;2024-01-30T03:24:05;94126.50;;;-2.46;62.13
10716;BME280;5409;42.620;23.316;2024-01-30T03:26:30;94121.91;;;-2.50;62.38
10716;BME280;5409;42.620;23.316;2024-01-30T03:28:56;94128.13;;;-2.45;62.04
10716;BME280;5409;42.620;23.316;2024-01-30T03:31:21;94115.97;;;-2.59;62.84
10716;BME280;5409;42.620;23.316;2024-01-30T03:33:47;94115.41;;;-2.53;61.30
10716;BME280;5409;42.620;23.316;2024-01-30T03:36:12;94127.13;;;-2.52;61.15
10716;BME280;5409;42.620;23.316;2024-01-30T03:38:38;94122.84;;;-2.51;61.15
10716;BME280;5409;42.620;23.316;2024-01-30T03:41:03;94118.28;;;-2.48;61.56
10716;BME280;5409;42.620;23.316;2024-01-30T03:43:32;94120.84;;;-2.40;61.31
10716;BME280;5409;42.620;23.316;2024-01-30T03:45:57;94111.28;;;-2.46;61.27
10716;BME280;5409;42.620;23.316;2024-01-30T03:48:23;94117.47;;;-2.48;60.79
10716;BME280;5409;42.620;23.316;2024-01-30T03:50:49;94116.69;;;-2.49;61.89
10716;BME280;5409;42.620;23.316;2024-01-30T03:53:15;94109.88;;;-2.48;61.46
10716;BME280;5409;42.620;23.316;2024-01-30T03:55:40;94102.47;;;-2.68;62.53
10716;BME280;5409;42.620;23.316;2024-01-30T03:58:06;94113.41;;;-2.67;62.44
10716;BME280;5409;42.620;23.316;2024-01-30T04:00:31;94115.38;;;-2.79;62.93
10716;BME280;5409;42.620;23.316;2024-01-30T04:02:56;94111.75;;;-2.76;62.69
10716;BME280;5409;42.620;23.316;2024-01-30T04:05:21;94073.31;;;-2.89;63.19
10716;BME280;5409;42.620;23.316;2024-01-30T04:07:47;94110.56;;;-2.64;62.96
10716;BME280;5409;42.620;23.316;2024-01-30T04:10:12;94109.03;;;-2.57;62.91
10716;BME280;5409;42.620;23.316;2024-01-30T04:12:38;94084.66;;;-2.76;61.16
10716;BME280;5409;42.620;23.316;2024-01-30T04:15:03;94104.84;;;-2.66;60.14
10716;BME280;5409;42.620;23.316;2024-01-30T04:17:29;94091.13;;;-2.81;60.09
10716;BME280;5409;42.620;23.316;2024-01-30T04:19:54;94101.97;;;-2.71;59.88
10716;BME280;5409;42.620;23.316;2024-01-30T04:22:20;94104.25;;;-2.60;59.63
10716;BME280;5409;42.620;23.316;2024-01-30T04:24:45;94106.28;;;-2.64;59.66
10716;BME280;5409;42.620;23.316;2024-01-30T04:27:11;94097.50;;;-2.77;59.55
10716;BME280;5409;42.620;23.316;2024-01-30T04:29:36;94107.22;;;-2.65;59.94
10716;BME280;5409;42.620;23.316;2024-01-30T04:32:01;94110.88;;;-2.67;59.03
10716;BME280;5409;42.620;23.316;2024-01-30T04:34:27;94118.63;;;-2.69;59.66
10716;BME280;5409;42.620;23.316;2024-01-30T04:36:52;94119.03;;;-2.81;59.63
10716;BME280;5409;42.620;23.316;2024-01-30T04:39:17;94118.34;;;-2.83;59.04
10716;BME280;5409;42.620;23.316;2024-01-30T04:41:43;94113.44;;;-2.85;59.17
10716;BME280;5409;42.620;23.316;2024-01-30T04:44:08;94102.78;;;-2.88;58.88
10716;BME280;5409;42.620;23.316;2024-01-30T04:46:33;94121.34;;;-2.88;58.74
10716;BME280;5409;42.620;23.316;2024-01-30T04:49:01;94113.16;;;-2.99;58.88
10716;BME280;5409;42.620;23.316;2024-01-30T04:51:28;94115.91;;;-2.93;59.03
10716;BME280;5409;42.620;23.316;2024-01-30T04:53:54;94129.75;;;-2.87;58.69
10716;BME280;5409;42.620;23.316;2024-01-30T04:56:19;94134.16;;;-2.89;58.74
10716;BME280;5409;42.620;23.316;2024-01-30T04:58:44;94126.09;;;-2.85;58.59
10716;BME280;5409;42.620;23.316;2024-01-30T05:01:14;94127.66;;;-2.92;58.13
10716;BME280;5409;42.620;23.316;2024-01-30T05:03:40;94102.63;;;-3.13;58.51
10716;BME280;5409;42.620;23.316;2024-01-30T05:06:05;94134.47;;;-2.92;59.05
10716;BME280;5409;42.620;23.316;2024-01-30T05:08:31;94122.00;;;-3.03;59.24
10716;BME280;5409;42.620;23.316;2024-01-30T05:11:00;94113.63;;;-3.22;59.64
10716;BME280;5409;42.620;23.316;2024-01-30T05:13:25;94138.66;;;-3.19;60.05
10716;BME280;5409;42.620;23.316;2024-01-30T05:15:50;94138.09;;;-3.13;59.87
10716;BME280;5409;42.620;23.316;2024-01-30T05:18:16;94142.44;;;-3.23;60.05
10716;BME280;5409;42.620;23.316;2024-01-30T05:20:41;94130.63;;;-3.32;59.98
10716;BME280;5409;42.620;23.316;2024-01-30T05:23:07;94144.16;;;-3.23;61.01
10716;BME280;5409;42.620;23.316;2024-01-30T05:25:33;94108.28;;;-3.36;60.42
10716;BME280;5409;42.620;23.316;2024-01-30T05:27:58;94141.63;;;-3.23;61.47
10716;BME280;5409;42.620;23.316;2024-01-30T05:30:23;94143.16;;;-3.13;62.50
10716;BME280;5409;42.620;23.316;2024-01-30T05:32:49;94145.03;;;-3.15;62.23
10716;BME280;5409;42.620;23.316;2024-01-30T05:35:14;94153.59;;;-3.16;61.33
10716;BME280;5409;42.620;23.316;2024-01-30T05:37:40;94152.84;;;-3.08;62.31
10716;BME280;5409;42.620;23.316;2024-01-30T05:40:06;94153.44;;;-3.14;61.63
10716;BME280;5409;42.620;23.316;2024-01-30T05:42:31;94155.16;;;-3.15;61.67
10716;BME280;5409;42.620;23.316;2024-01-30T05:44:57;94137.38;;;-3.23;63.41
10716;BME280;5409;42.620;23.316;2024-01-30T05:47:22;94148.66;;;-2.99;62.75
10716;BME280;5409;42.620;23.316;2024-01-30T05:49:48;94150.81;;;-3.04;62.78
10716;BME280;5409;42.620;23.316;2024-01-30T05:52:13;94155.38;;;-3.08;63.36
10716;BME280;5409;42.620;23.316;2024-01-30T05:54:40;94153.28;;;-3.13;63.29
10716;BME280;5409;42.620;23.316;2024-01-30T05:57:05;94144.75;;;-3.12;62.69
10716;BME280;5409;42.620;23.316;2024-01-30T05:59:31;94133.53;;;-3.09;61.98
10716;BME280;5409;42.620;23.316;2024-01-30T06:01:57;94145.84;;;-2.96;62.42
10716;BME280;5409;42.620;23.316;2024-01-30T06:04:23;94151.78;;;-3.05;62.25
10716;BME280;5409;42.620;23.316;2024-01-30T06:06:48;94152.50;;;-3.13;62.95
10716;BME280;5409;42.620;23.316;2024-01-30T06:09:14;94147.66;;;-3.07;62.70
10716;BME280;5409;42.620;23.316;2024-01-30T06:11:39;94129.81;;;-3.15;62.58
10716;BME280;5409;42.620;23.316;2024-01-30T06:14:05;94130.19;;;-3.10;62.39
10716;BME280;5409;42.620;23.316;2024-01-30T06:16:30;94131.72;;;-3.17;62.68
10716;BME280;5409;42.620;23.316;2024-01-30T06:18:56;94148.44;;;-3.06;61.96
10716;BME280;5409;42.620;23.316;2024-01-30T06:21:21;94140.41;;;-3.01;61.41
10716;BME280;5409;42.620;23.316;2024-01-30T06:23:46;94150.38;;;-3.00;62.11
10716;BME280;5409;42.620;23.316;2024-01-30T06:26:12;94143.88;;;-3.02;61.58
10716;BME280;5409;42.620;23.316;2024-01-30T06:28:37;94145.53;;;-2.93;61.26
10716;BME280;5409;42.620;23.316;2024-01-30T06:31:03;94152.69;;;-2.89;60.58
10716;BME280;5409;42.620;23.316;2024-01-30T06:33:28;94153.34;;;-2.87;59.56
10716;BME280;5409;42.620;23.316;2024-01-30T06:35:54;94153.19;;;-2.85;60.74
10716;BME280;5409;42.620;23.316;2024-01-30T06:38:19;94130.31;;;-2.93;60.08
10716;BME280;5409;42.620;23.316;2024-01-30T06:40:44;94160.94;;;-2.69;58.31
10716;BME280;5409;42.620;23.316;2024-01-30T06:43:10;94151.94;;;-2.64;58.59
10716;BME280;5409;42.620;23.316;2024-01-30T06:45:36;94165.59;;;-2.56;58.81
10716;BME280;5409;42.620;23.316;2024-01-30T06:48:02;94161.97;;;-2.54;60.06
10716;BME280;5409;42.620;23.316;2024-01-30T06:50:28;94156.22;;;-2.38;60.22
10716;BME280;5409;42.620;23.316;2024-01-30T06:52:53;94161.44;;;-2.40;59.35
10716;BME280;5409;42.620;23.316;2024-01-30T06:55:19;94147.81;;;-2.39;58.69
10716;BME280;5409;42.620;23.316;2024-01-30T06:57:44;94152.69;;;-2.20;58.18
10716;BME280;5409;42.620;23.316;2024-01-30T07:00:10;94147.28;;;-2.16;57.55
10716;BME280;5409;42.620;23.316;2024-01-30T07:02:35;94161.59;;;-2.07;57.42
10716;BME280;5409;42.620;23.316;2024-01-30T07:05:01;94157.09;;;-2.22;56.37
10716;BME280;5409;42.620;23.316;2024-01-30T07:07:27;94158.03;;;-2.23;57.44
10716;BME280;5409;42.620;23.316;2024-01-30T07:09:54;94162.22;;;-2.13;57.43
10716;BME280;5409;42.620;23.316;2024-01-30T07:12:22;94143.69;;;-2.06;55.83
10716;BME280;5409;42.620;23.316;2024-01-30T07:14:47;94164.50;;;-2.02;56.16
10716;BME280;5409;42.620;23.316;2024-01-30T07:17:13;94157.88;;;-1.95;55.38
10716;BME280;5409;42.620;23.316;2024-01-30T07:19:38;94168.03;;;-1.95;54.95
10716;BME280;5409;42.620;23.316;2024-01-30T07:22:04;94160.09;;;-1.92;54.73
10716;BME280;5409;42.620;23.316;2024-01-30T07:24:29;94167.09;;;-1.94;55.95
10716;BME280;5409;42.620;23.316;2024-01-30T07:26:54;94165.38;;;-1.86;55.58
10716;BME280;5409;42.620;23.316;2024-01-30T07:29:20;94165.50;;;-1.87;55.85
10716;BME280;5409;42.620;23.316;2024-01-30T07:31:46;94155.03;;;-1.92;55.26
10716;BME280;5409;42.620;23.316;2024-01-30T07:34:11;94157.56;;;-1.92;55.13
10716;BME280;5409;42.620;23.316;2024-01-30T07:36:37;94159.00;;;-1.90;55.47
10716;BME280;5409;42.620;23.316;2024-01-30T07:39:02;94152.44;;;-2.08;56.27
10716;BME280;5409;42.620;23.316;2024-01-30T07:41:28;94153.66;;;-2.12;55.63
10716;BME280;5409;42.620;23.316;2024-01-30T07:43:53;94156.59;;;-1.99;54.88
10716;BME280;5409;42.620;23.316;2024-01-30T07:46:18;94148.97;;;-1.99;54.78
10716;BME280;5409;42.620;23.316;2024-01-30T07:48:44;94151.84;;;-1.94;54.59
10716;BME280;5409;42.620;23.316;2024-01-30T07:51:09;94153.88;;;-1.98;54.92
10716;BME280;5409;42.620;23.316;2024-01-30T07:53:34;94150.25;;;-1.95;54.59
10716;BME280;5409;42.620;23.316;2024-01-30T07:56:00;94143.72;;;-1.98;54.44
10716;BME280;5409;42.620;23.316;2024-01-30T07:58:25;94162.03;;;-1.86;53.44
10716;BME280;5409;42.620;23.316;2024-01-30T08:00:52;94150.41;;;-1.97;54.15
10716;BME280;5409;42.620;23.316;2024-01-30T08:03:18;94138.16;;;-2.01;54.37
10716;BME280;5409;42.620;23.316;2024-01-30T08:05:44;94155.69;;;-1.82;54.65
10716;BME280;5409;42.620;23.316;2024-01-30T08:08:09;94144.94;;;-1.76;53.66
10716;BME280;5409;42.620;23.316;2024-01-30T08:10:35;94149.88;;;-1.74;54.14
10716;BME280;5409;42.620;23.316;2024-01-30T08:13:01;94151.91;;;-1.78;54.51
10716;BME280;5409;42.620;23.316;2024-01-30T08:15:27;94149.69;;;-1.73;54.64
10716;BME280;5409;42.620;23.316;2024-01-30T08:17:52;94126.16;;;-1.91;54.85
10716;BME280;5409;42.620;23.316;2024-01-30T08:20:23;94149.69;;;-1.73;53.91
10716;BME280;5409;42.620;23.316;2024-01-30T08:22:48;94154.91;;;-1.83;56.63
10716;BME280;5409;42.620;23.316;2024-01-30T08:25:13;94153.16;;;-1.82;55.88
10716;BME280;5409;42.620;23.316;2024-01-30T08:27:39;94148.91;;;-1.73;54.61
10716;BME280;5409;42.620;23.316;2024-01-30T08:30:06;94154.16;;;-1.67;54.90
10716;BME280;5409;42.620;23.316;2024-01-30T08:32:31;94161.66;;;-1.65;53.86
10716;BME280;5409;42.620;23.316;2024-01-30T08:34:57;94153.19;;;-1.74;54.57
10716;BME280;5409;42.620;23.316;2024-01-30T08:37:23;94154.16;;;-1.67;53.39
10716;BME280;5409;42.620;23.316;2024-01-30T08:39:48;94156.09;;;-1.61;53.39
10716;BME280;5409;42.620;23.316;2024-01-30T08:42:13;94154.81;;;-1.65;54.55
10716;BME280;5409;42.620;23.316;2024-01-30T08:44:38;94165.00;;;-1.57;54.76
10716;BME280;5409;42.620;23.316;2024-01-30T08:47:04;94167.22;;;-1.54;55.27
10716;BME280;5409;42.620;23.316;2024-01-30T08:49:29;94167.72;;;-1.50;54.41
10716;BME280;5409;42.620;23.316;2024-01-30T08:51:55;94151.03;;;-1.53;55.54
10716;BME280;5409;42.620;23.316;2024-01-30T08:54:20;94173.13;;;-1.45;55.19
10716;BME280;5409;42.620;23.316;2024-01-30T08:56:45;94169.13;;;-1.56;55.68
10716;BME280;5409;42.620;23.316;2024-01-30T08:59:11;94164.66;;;-1.62;56.19
10716;BME280;5409;42.620;23.316;2024-01-30T09:01:36;94176.13;;;-1.50;55.22
10716;BME280;5409;42.620;23.316;2024-01-30T09:04:03;94176.63;;;-1.46;55.43
10716;BME280;5409;42.620;23.316;2024-01-30T09:06:29;94178.09;;;-1.36;56.07
10716;BME280;5409;42.620;23.316;2024-01-30T09:08:54;94162.50;;;-1.41;54.69
10716;BME280;5409;42.620;23.316;2024-01-30T09:11:20;94176.03;;;-1.24;54.43
10716;BME280;5409;42.620;23.316;2024-01-30T09:13:45;94181.91;;;-1.15;54.91
10716;BME280;5409;42.620;23.316;2024-01-30T09:16:10;94169.09;;;-0.98;53.83
10716;BME280;5409;42.620;23.316;2024-01-30T09:18:36;94168.59;;;-0.77;52.65
10716;BME280;5409;42.620;23.316;2024-01-30T09:21:01;94156.22;;;-0.72;52.80
10716;BME280;5409;42.620;23.316;2024-01-30T09:23:27;94161.63;;;-0.75;52.70
10716;BME280;5409;42.620;23.316;2024-01-30T09:25:53;94156.88;;;-0.78;52.44
10716;BME280;5409;42.620;23.316;2024-01-30T09:28:18;94161.94;;;-0.62;52.86
10716;BME280;5409;42.620;23.316;2024-01-30T09:30:44;94149.06;;;-0.44;52.07
10716;BME280;5409;42.620;23.316;2024-01-30T09:33:09;94157.72;;;-0.06;51.00
10716;BME280;5409;42.620;23.316;2024-01-30T09:35:36;94155.72;;;0.20;50.16
10716;BME280;5409;42.620;23.316;2024-01-30T09:38:02;94151.88;;;0.24;50.04
10716;BME280;5409;42.620;23.316;2024-01-30T09:40:27;94139.63;;;0.20;51.72
10716;BME280;5409;42.620;23.316;2024-01-30T09:42:54;94149.63;;;0.29;50.21
10716;BME280;5409;42.620;23.316;2024-01-30T09:45:20;94150.47;;;0.22;50.50
10716;BME280;5409;42.620;23.316;2024-01-30T09:47:48;94156.75;;;0.03;50.81
10716;BME280;5409;42.620;23.316;2024-01-30T09:50:14;94146.13;;;-0.17;51.08
10716;BME280;5409;42.620;23.316;2024-01-30T09:52:40;94155.78;;;-0.04;50.87
10716;BME280;5409;42.620;23.316;2024-01-30T09:55:07;94149.72;;;0.13;50.51
10716;BME280;5409;42.620;23.316;2024-01-30T09:57:33;94144.06;;;0.26;50.47
10716;BME280;5409;42.620;23.316;2024-01-30T09:59:59;94147.41;;;0.26;49.73
10716;BME280;5409;42.620;23.316;2024-01-30T10:02:24;94150.41;;;0.38;49.86
10716;BME280;5409;42.620;23.316;2024-01-30T10:04:51;94129.34;;;0.44;48.46
10716;BME280;5409;42.620;23.316;2024-01-30T10:07:17;94141.16;;;0.37;49.16
10716;BME280;5409;42.620;23.316;2024-01-30T10:09:43;94123.16;;;0.38;49.06
10716;BME280;5409;42.620;23.316;2024-01-30T10:12:09;94133.09;;;0.25;49.89
10716;BME280;5409;42.620;23.316;2024-01-30T10:14:44;94138.56;;;0.14;49.31
10716;BME280;5409;42.620;23.316;2024-01-30T10:17:10;94127.09;;;0.10;50.45
10716;BME280;5409;42.620;23.316;2024-01-30T10:19:37;94132.25;;;-0.06;49.87
10716;BME280;5409;42.620;23.316;2024-01-30T10:22:03;94128.13;;;-0.07;51.33
10716;BME280;5409;42.620;23.316;2024-01-30T10:24:29;94133.84;;;-0.13;51.75
10716;BME280;5409;42.620;23.316;2024-01-30T10:26:55;94105.25;;;-0.23;50.21
10716;BME280;5409;42.620;23.316;2024-01-30T10:29:20;94135.44;;;-0.12;50.45
10716;BME280;5409;42.620;23.316;2024-01-30T10:31:46;94134.25;;;-0.40;52.15
10716;BME280;5409;42.620;23.316;2024-01-30T10:34:12;94132.31;;;-0.30;52.04
10716;BME280;5409;42.620;23.316;2024-01-30T10:36:41;94139.28;;;-0.16;50.38
10716;BME280;5409;42.620;23.316;2024-01-30T10:39:08;94140.72;;;-0.22;51.69
10716;BME280;5409;42.620;23.316;2024-01-30T10:41:42;94083.84;;;-0.53;51.41
10716;BME280;5409;42.620;23.316;2024-01-30T10:44:09;94136.09;;;-0.18;51.88
10716;BME280;5409;42.620;23.316;2024-01-30T10:46:37;94136.41;;;-0.13;52.14
10716;BME280;5409;42.620;23.316;2024-01-30T10:49:04;94132.25;;;-0.06;52.42
10716;BME280;5409;42.620;23.316;2024-01-30T10:51:31;94135.09;;;-0.01;52.44
10716;BME280;5409;42.620;23.316;2024-01-30T10:53:57;94118.63;;;-0.21;52.65
10716;BME280;5409;42.620;23.316;2024-01-30T10:56:23;94130.53;;;-0.22;53.47
10716;BME280;5409;42.620;23.316;2024-01-30T10:58:53;94115.22;;;-0.14;52.93
10716;BME280;5409;42.620;23.316;2024-01-30T11:01:20;94116.38;;;0.23;53.01
10716;BME280;5409;42.620;23.316;2024-01-30T11:03:54;94111.34;;;0.46;52.53
10716;BME280;5409;42.620;23.316;2024-01-30T11:06:30;94105.47;;;0.68;51.62
10716;BME280;5409;42.620;23.316;2024-01-30T11:09:03;94100.25;;;0.84;49.53
10716;BME280;5409;42.620;23.316;2024-01-30T11:11:51;94097.75;;;0.99;50.16
10716;BME280;5409;42.620;23.316;2024-01-30T11:14:16;94106.09;;;1.15;49.50
10716;BME280;5409;42.620;23.316;2024-01-30T11:16:42;94107.78;;;1.23;49.38
10716;BME280;5409;42.620;23.316;2024-01-30T11:19:11;94103.31;;;1.25;49.94
10716;BME280;5409;42.620;23.316;2024-01-30T11:21:41;94101.28;;;1.20;49.85
10716;BME280;5409;42.620;23.316;2024-01-30T11:24:07;94102.50;;;1.24;48.51
10716;BME280;5409;42.620;23.316;2024-01-30T11:26:33;94102.31;;;1.11;49.78
10716;BME280;5409;42.620;23.316;2024-01-30T11:29:03;94102.03;;;1.06;50.58
10716;BME280;5409;42.620;23.316;2024-01-30T11:31:28;94104.69;;;0.90;50.14
10716;BME280;5409;42.620;23.316;2024-01-30T11:33:56;94076.34;;;0.85;50.13
10716;BME280;5409;42.620;23.316;2024-01-30T11:36:25;94100.91;;;0.86;50.49
10716;BME280;5409;42.620;23.316;2024-01-30T11:38:51;94094.59;;;0.97;50.46
10716;BME280;5409;42.620;23.316;2024-01-30T11:41:17;94094.03;;;1.09;50.56
10716;BME280;5409;42.620;23.316;2024-01-30T11:43:43;94099.22;;;0.93;50.40
10716;BME280;5409;42.620;23.316;2024-01-30T11:46:09;94103.94;;;1.04;51.13
10716;BME280;5409;42.620;23.316;2024-01-30T11:48:35;94099.19;;;1.01;50.24
10716;BME280;5409;42.620;23.316;2024-01-30T11:51:00;94088.47;;;0.83;49.96
10716;BME280;5409;42.620;23.316;2024-01-30T11:53:27;94095.94;;;1.07;49.68
10716;BME280;5409;42.620;23.316;2024-01-30T11:55:52;94101.28;;;1.20;49.63
10716;BME280;5409;42.620;23.316;2024-01-30T11:58:18;94079.81;;;1.29;49.31
10716;BME280;5409;42.620;23.316;2024-01-30T12:00:55;94066.97;;;1.38;48.62
10716;BME280;5409;42.620;23.316;2024-01-30T12:03:21;94070.47;;;1.37;49.31
10716;BME280;5409;42.620;23.316;2024-01-30T12:05:46;94067.81;;;1.15;48.91
10716;BME280;5409;42.620;23.316;2024-01-30T12:08:16;94060.69;;;0.88;48.61
10716;BME280;5409;42.620;23.316;2024-01-30T12:10:41;94067.78;;;0.78;49.98
10716;BME280;5409;42.620;23.316;2024-01-30T12:13:07;94070.66;;;0.98;49.97
10716;BME280;5409;42.620;23.316;2024-01-30T12:15:32;94068.31;;;0.96;49.61
10716;BME280;5409;42.620;23.316;2024-01-30T12:18:07;94052.28;;;1.02;49.70
10716;BME280;5409;42.620;23.316;2024-01-30T12:20:32;94041.41;;;1.08;48.74
10716;BME280;5409;42.620;23.316;2024-01-30T12:22:58;94047.59;;;1.28;48.29
10716;BME280;5409;42.620;23.316;2024-01-30T12:25:23;94039.06;;;1.51;48.30
10716;BME280;5409;42.620;23.316;2024-01-30T12:27:50;94011.25;;;1.70;48.09
10716;BME280;5409;42.620;23.316;2024-01-30T12:30:16;94043.78;;;2.27;47.15
10716;BME280;5409;42.620;23.316;2024-01-30T12:32:43;94041.22;;;2.48;46.06
10716;BME280;5409;42.620;23.316;2024-01-30T12:35:15;94033.16;;;2.66;45.08
10716;BME280;5409;42.620;23.316;2024-01-30T12:37:43;94029.94;;;2.22;45.96
10716;BME280;5409;42.620;23.316;2024-01-30T12:40:09;94029.31;;;1.84;47.18
10716;BME280;5409;42.620;23.316;2024-01-30T12:42:36;94013.38;;;1.67;47.28
10716;BME280;5409;42.620;23.316;2024-01-30T12:45:05;94015.91;;;1.96;47.45
10716;BME280;5409;42.620;23.316;2024-01-30T12:47:31;94024.53;;;1.95;47.51
10716;BME280;5409;42.620;23.316;2024-01-30T12:49:56;94025.88;;;1.77;47.56
10716;BME280;5409;42.620;23.316;2024-01-30T12:52:22;94019.53;;;1.28;49.63
10716;BME280;5409;42.620;23.316;2024-01-30T12:54:48;94029.53;;;0.78;49.96
10716;BME280;5409;42.620;23.316;2024-01-30T12:57:14;94029.91;;;0.52;50.97